sensor_id;sensor_type;location;lat;lon;timestamp;pressure;altitude;pressure_sealevel;temperature;humidity
64916;BME280;51427;-27.442;153.014;2024-03-02T00:01:56;101390.63;;;30.35;48.56
64916;BME280;51427;-27.442;153.014;2024-03-02T00:04:28;101390.63;;;30.35;49.83
64916;BME280;51427;-27.442;153.014;2024-03-02T00:06:56;101389.84;;;30.08;48.36
64916;BME280;51427;-27.442;153.014;2024-03-02T00:09:23;101389.38;;;30.63;48.10
64916;BME280;51427;-27.442;153.014;2024-03-02T00:11:51;101385.44;;;30.37;48.34
64916;BME280;51427;-27.442;153.014;2024-03-02T00:14:19;101381.03;;;29.31;49.20
64916;BME280;51427;-27.442;153.014;2024-03-02T00:16:47;101378.94;;;30.30;49.05
64916;BME280;51427;-27.442;153.014;2024-03-02T00:19:14;101379.13;;;29.61;49.09
64916;BME280;51427;-27.442;153.014;2024-03-02T00:21:42;101376.00;;;29.67;49.34
64916;BME280;51427;-27.442;153.014;2024-03-02T00:24:38;101373.28;;;30.56;47.35
64916;BME280;51427;-27.442;153.014;2024-03-02T00:27:08;101377.81;;;30.64;50.34
64916;BME280;51427;-27.442;153.014;2024-03-02T00:29:38;101369.25;;;30.90;51.78
64916;BME280;51427;-27.442;153.014;2024-03-02T00:32:13;101356.25;;;30.38;48.78
64916;BME280;51427;-27.442;153.014;2024-03-02T00:34:41;101349.63;;;30.90;47.75
64916;BME280;51427;-27.442;153.014;2024-03-02T00:37:09;101351.19;;;31.25;46.68
64916;BME280;51427;-27.442;153.014;2024-03-02T00:39:38;101341.06;;;31.13;47.62
64916;BME280;51427;-27.442;153.014;2024-03-02T00:42:06;101341.34;;;31.48;46.82
64916;BME280;51427;-27.442;153.014;2024-03-02T00:44:34;101335.78;;;31.04;46.51
64916;BME280;51427;-27.442;153.014;2024-03-02T00:47:04;101338.56;;;30.34;48.10
64916;BME280;51427;-27.442;153.014;2024-03-02T00:49:31;101330.72;;;30.80;47.47
64916;BME280;51427;-27.442;153.014;2024-03-02T00:51:59;101322.03;;;30.26;49.45
64916;BME280;51427;-27.442;153.014;2024-03-02T00:54:27;101321.16;;;30.48;47.85
64916;BME280;51427;-27.442;153.014;2024-03-02T00:56:55;101308.28;;;31.21;48.95
64916;BME280;51427;-27.442;153.014;2024-03-02T00:59:23;101299.66;;;31.50;45.39
64916;BME280;51427;-27.442;153.014;2024-03-02T01:01:51;101295.13;;;31.28;46.93
64916;BME280;51427;-27.442;153.014;2024-03-02T01:04:19;101300.06;;;31.49;46.32
64916;BME280;51427;-27.442;153.014;2024-03-02T01:06:46;101300.97;;;31.60;46.67
64916;BME280;51427;-27.442;153.014;2024-03-02T01:09:15;101299.88;;;31.24;47.53
64916;BME280;51427;-27.442;153.014;2024-03-02T01:11:44;101291.13;;;31.94;43.76
64916;BME280;51427;-27.442;153.014;2024-03-02T01:14:12;101294.28;;;31.89;46.03
64916;BME280;51427;-27.442;153.014;2024-03-02T01:16:39;101290.25;;;31.83;46.49
64916;BME280;51427;-27.442;153.014;2024-03-02T01:19:07;101281.78;;;31.73;46.03
64916;BME280;51427;-27.442;153.014;2024-03-02T01:21:36;101279.44;;;31.89;45.90
64916;BME280;51427;-27.442;153.014;2024-03-02T01:24:04;101278.09;;;31.58;45.68
64916;BME280;51427;-27.442;153.014;2024-03-02T01:26:32;101270.59;;;31.80;46.46
64916;BME280;51427;-27.442;153.014;2024-03-02T01:28:59;101258.88;;;31.60;45.35
64916;BME280;51427;-27.442;153.014;2024-03-02T01:31:27;101261.00;;;31.84;46.25
64916;BME280;51427;-27.442;153.014;2024-03-02T01:33:54;101259.31;;;31.69;46.24
64916;BME280;51427;-27.442;153.014;2024-03-02T01:36:22;101257.69;;;31.10;45.72
64916;BME280;51427;-27.442;153.014;2024-03-02T01:38:50;101254.72;;;32.16;45.16
64916;BME280;51427;-27.442;153.014;2024-03-02T01:41:18;101237.13;;;32.47;45.17
64916;BME280;51427;-27.442;153.014;2024-03-02T01:43:45;101243.47;;;32.16;43.90
64916;BME280;51427;-27.442;153.014;2024-03-02T01:46:13;101232.91;;;31.81;46.84
64916;BME280;51427;-27.442;153.014;2024-03-02T01:48:41;101229.31;;;31.91;46.40
64916;BME280;51427;-27.442;153.014;2024-03-02T01:51:09;101225.44;;;32.24;44.62
64916;BME280;51427;-27.442;153.014;2024-03-02T01:53:38;101214.25;;;32.45;43.88
64916;BME280;51427;-27.442;153.014;2024-03-02T01:56:05;101213.47;;;32.59;40.72
64916;BME280;51427;-27.442;153.014;2024-03-02T01:58:33;101212.97;;;31.31;44.64
64916;BME280;51427;-27.442;153.014;2024-03-02T02:01:01;101207.13;;;31.65;45.51
64916;BME280;51427;-27.442;153.014;2024-03-02T02:03:29;101190.94;;;32.41;41.49
64916;BME280;51427;-27.442;153.014;2024-03-02T02:05:57;101198.63;;;32.76;42.73
64916;BME280;51427;-27.442;153.014;2024-03-02T02:08:25;101192.97;;;32.58;44.96
64916;BME280;51427;-27.442;153.014;2024-03-02T02:10:52;101186.69;;;31.64;45.34
64916;BME280;51427;-27.442;153.014;2024-03-02T02:13:20;101171.16;;;31.98;41.73
64916;BME280;51427;-27.442;153.014;2024-03-02T02:15:47;101180.50;;;32.38;43.61
64916;BME280;51427;-27.442;153.014;2024-03-02T02:18:15;101174.50;;;32.78;44.20
64916;BME280;51427;-27.442;153.014;2024-03-02T02:20:43;101168.06;;;32.78;42.81
64916;BME280;51427;-27.442;153.014;2024-03-02T02:23:10;101177.69;;;32.38;42.87
64916;BME280;51427;-27.442;153.014;2024-03-02T02:25:40;101165.69;;;32.66;43.38
64916;BME280;51427;-27.442;153.014;2024-03-02T02:28:07;101161.63;;;32.42;42.31
64916;BME280;51427;-27.442;153.014;2024-03-02T02:30:35;101158.81;;;32.95;43.55
64916;BME280;51427;-27.442;153.014;2024-03-02T02:33:03;101155.56;;;32.08;42.15
64916;BME280;51427;-27.442;153.014;2024-03-02T02:35:30;101145.97;;;32.44;42.95
64916;BME280;51427;-27.442;153.014;2024-03-02T02:37:59;101148.00;;;32.86;43.72
64916;BME280;51427;-27.442;153.014;2024-03-02T02:40:27;101150.78;;;32.90;41.99
64916;BME280;51427;-27.442;153.014;2024-03-02T02:42:58;101141.84;;;33.34;40.78
64916;BME280;51427;-27.442;153.014;2024-03-02T02:45:26;101142.97;;;33.65;40.24
64916;BME280;51427;-27.442;153.014;2024-03-02T02:47:54;101131.94;;;32.76;40.03
64916;BME280;51427;-27.442;153.014;2024-03-02T02:50:21;101133.47;;;32.95;38.33
64916;BME280;51427;-27.442;153.014;2024-03-02T02:52:49;101137.03;;;33.34;41.11
64916;BME280;51427;-27.442;153.014;2024-03-02T02:55:17;101122.22;;;32.98;38.39
64916;BME280;51427;-27.442;153.014;2024-03-02T02:57:44;101119.63;;;33.61;39.99
64916;BME280;51427;-27.442;153.014;2024-03-02T03:00:14;101117.06;;;32.76;39.67
64916;BME280;51427;-27.442;153.014;2024-03-02T03:02:43;101124.47;;;33.64;39.43
64916;BME280;51427;-27.442;153.014;2024-03-02T03:05:13;101116.13;;;34.15;38.94
64916;BME280;51427;-27.442;153.014;2024-03-02T03:07:42;101107.69;;;33.32;37.33
64916;BME280;51427;-27.442;153.014;2024-03-02T03:10:11;101110.38;;;33.67;38.60
64916;BME280;51427;-27.442;153.014;2024-03-02T03:12:38;101104.44;;;33.40;37.87
64916;BME280;51427;-27.442;153.014;2024-03-02T03:15:08;101104.34;;;33.65;37.29
64916;BME280;51427;-27.442;153.014;2024-03-02T03:17:37;101108.72;;;33.73;37.20
64916;BME280;51427;-27.442;153.014;2024-03-02T03:20:05;101101.31;;;33.03;41.05
64916;BME280;51427;-27.442;153.014;2024-03-02T03:22:39;101102.19;;;32.19;46.06
64916;BME280;51427;-27.442;153.014;2024-03-02T03:25:07;101094.16;;;32.42;45.81
64916;BME280;51427;-27.442;153.014;2024-03-02T03:27:35;101092.91;;;31.90;47.52
64916;BME280;51427;-27.442;153.014;2024-03-02T03:30:03;101090.38;;;31.46;48.04
64916;BME280;51427;-27.442;153.014;2024-03-02T03:32:32;101082.16;;;32.27;46.87
64916;BME280;51427;-27.442;153.014;2024-03-02T03:35:00;101075.22;;;31.75;47.17
64916;BME280;51427;-27.442;153.014;2024-03-02T03:37:28;101071.69;;;32.10;47.48
64916;BME280;51427;-27.442;153.014;2024-03-02T03:40:00;101073.63;;;31.74;49.94
64916;BME280;51427;-27.442;153.014;2024-03-02T03:42:28;101064.06;;;32.35;49.10
64916;BME280;51427;-27.442;153.014;2024-03-02T03:44:55;101069.91;;;31.45;49.77
64916;BME280;51427;-27.442;153.014;2024-03-02T03:47:23;101064.34;;;31.52;50.52
64916;BME280;51427;-27.442;153.014;2024-03-02T03:49:51;101066.75;;;31.54;50.21
64916;BME280;51427;-27.442;153.014;2024-03-02T03:52:18;101051.94;;;31.64;50.15
64916;BME280;51427;-27.442;153.014;2024-03-02T03:54:47;101058.81;;;31.84;49.50
64916;BME280;51427;-27.442;153.014;2024-03-02T03:57:15;101046.00;;;32.22;49.88
64916;BME280;51427;-27.442;153.014;2024-03-02T03:59:43;101058.88;;;32.13;50.17
64916;BME280;51427;-27.442;153.014;2024-03-02T04:02:11;101054.94;;;31.09;51.43
64916;BME280;51427;-27.442;153.014;2024-03-02T04:04:39;101043.88;;;31.48;49.72
64916;BME280;51427;-27.442;153.014;2024-03-02T04:07:07;101044.91;;;31.05;51.14
64916;BME280;51427;-27.442;153.014;2024-03-02T04:09:35;101044.94;;;31.16;50.24
64916;BME280;51427;-27.442;153.014;2024-03-02T04:12:02;101035.28;;;30.99;51.93
64916;BME280;51427;-27.442;153.014;2024-03-02T04:14:30;101026.16;;;31.23;52.24
64916;BME280;51427;-27.442;153.014;2024-03-02T04:16:58;101041.53;;;30.78;52.89
64916;BME280;51427;-27.442;153.014;2024-03-02T04:19:25;101030.94;;;31.23;52.28
64916;BME280;51427;-27.442;153.014;2024-03-02T04:21:53;101030.91;;;30.47;53.30
64916;BME280;51427;-27.442;153.014;2024-03-02T04:24:21;101029.16;;;30.25;54.27
64916;BME280;51427;-27.442;153.014;2024-03-02T04:26:48;101029.56;;;30.30;53.89
64916;BME280;51427;-27.442;153.014;2024-03-02T04:29:16;101019.59;;;30.33;53.56
64916;BME280;51427;-27.442;153.014;2024-03-02T04:31:44;101023.41;;;30.61;53.55
64916;BME280;51427;-27.442;153.014;2024-03-02T04:34:12;101019.19;;;30.92;53.27
64916;BME280;51427;-27.442;153.014;2024-03-02T04:36:39;101014.69;;;30.19;54.34
64916;BME280;51427;-27.442;153.014;2024-03-02T04:39:07;101018.28;;;30.71;53.61
64916;BME280;51427;-27.442;153.014;2024-03-02T04:41:36;101013.53;;;30.85;53.61
64916;BME280;51427;-27.442;153.014;2024-03-02T04:44:04;101019.25;;;30.99;53.46
64916;BME280;51427;-27.442;153.014;2024-03-02T04:46:32;101010.97;;;31.38;52.44
64916;BME280;51427;-27.442;153.014;2024-03-02T04:49:00;101007.03;;;30.64;53.38
64916;BME280;51427;-27.442;153.014;2024-03-02T04:51:27;101009.00;;;30.63;54.18
64916;BME280;51427;-27.442;153.014;2024-03-02T04:53:55;100995.16;;;30.95;53.32
64916;BME280;51427;-27.442;153.014;2024-03-02T04:56:22;100986.59;;;31.56;51.58
64916;BME280;51427;-27.442;153.014;2024-03-02T04:59:07;100989.78;;;31.66;50.96
64916;BME280;51427;-27.442;153.014;2024-03-02T05:01:34;100999.28;;;30.43;54.13
64916;BME280;51427;-27.442;153.014;2024-03-02T05:04:02;100996.28;;;30.18;54.48
64916;BME280;51427;-27.442;153.014;2024-03-02T05:06:30;100984.91;;;29.93;54.86
64916;BME280;51427;-27.442;153.014;2024-03-02T05:08:58;100988.69;;;30.22;55.67
64916;BME280;51427;-27.442;153.014;2024-03-02T05:11:25;100985.91;;;30.91;53.51
64916;BME280;51427;-27.442;153.014;2024-03-02T05:14:12;100977.81;;;30.75;53.95
64916;BME280;51427;-27.442;153.014;2024-03-02T05:16:40;100978.78;;;30.32;55.87
64916;BME280;51427;-27.442;153.014;2024-03-02T05:19:10;100971.91;;;30.91;54.70
64916;BME280;51427;-27.442;153.014;2024-03-02T05:21:38;100976.78;;;31.01;53.95
64916;BME280;51427;-27.442;153.014;2024-03-02T05:24:06;100973.81;;;30.69;55.14
64916;BME280;51427;-27.442;153.014;2024-03-02T05:26:34;100975.59;;;31.05;54.26
64916;BME280;51427;-27.442;153.014;2024-03-02T05:29:01;100966.78;;;30.35;55.07
64916;BME280;51427;-27.442;153.014;2024-03-02T05:31:29;100970.88;;;30.44;54.85
64916;BME280;51427;-27.442;153.014;2024-03-02T05:33:57;100955.72;;;29.98;55.74
64916;BME280;51427;-27.442;153.014;2024-03-02T05:36:25;100960.03;;;29.85;55.77
64916;BME280;51427;-27.442;153.014;2024-03-02T05:38:53;100953.44;;;30.10;55.78
64916;BME280;51427;-27.442;153.014;2024-03-02T05:41:21;100956.31;;;30.25;56.26
64916;BME280;51427;-27.442;153.014;2024-03-02T05:43:48;100954.53;;;29.99;56.66
64916;BME280;51427;-27.442;153.014;2024-03-02T05:46:16;100956.28;;;30.18;56.73
64916;BME280;51427;-27.442;153.014;2024-03-02T05:48:44;100952.88;;;29.91;56.47
64916;BME280;51427;-27.442;153.014;2024-03-02T05:51:11;100951.66;;;30.43;56.99
64916;BME280;51427;-27.442;153.014;2024-03-02T05:53:39;100960.41;;;30.38;56.64
64916;BME280;51427;-27.442;153.014;2024-03-02T05:56:07;100963.91;;;29.77;58.54
64916;BME280;51427;-27.442;153.014;2024-03-02T05:58:35;100961.44;;;29.64;58.49
64916;BME280;51427;-27.442;153.014;2024-03-02T06:01:15;100959.66;;;29.86;58.38
64916;BME280;51427;-27.442;153.014;2024-03-02T06:03:44;100964.13;;;29.98;58.34
64916;BME280;51427;-27.442;153.014;2024-03-02T06:06:12;100963.19;;;30.34;56.76
64916;BME280;51427;-27.442;153.014;2024-03-02T06:08:40;100963.34;;;30.01;58.47
64916;BME280;51427;-27.442;153.014;2024-03-02T06:11:07;100967.78;;;30.05;59.00
64916;BME280;51427;-27.442;153.014;2024-03-02T06:13:35;100964.38;;;29.82;58.60
64916;BME280;51427;-27.442;153.014;2024-03-02T06:16:02;100978.66;;;29.70;58.74
64916;BME280;51427;-27.442;153.014;2024-03-02T06:18:30;100966.34;;;29.78;59.33
64916;BME280;51427;-27.442;153.014;2024-03-02T06:20:58;100975.28;;;29.50;60.43
64916;BME280;51427;-27.442;153.014;2024-03-02T06:23:25;100964.06;;;29.47;59.95
64916;BME280;51427;-27.442;153.014;2024-03-02T06:25:53;100965.50;;;29.34;60.39
64916;BME280;51427;-27.442;153.014;2024-03-02T06:28:24;100963.66;;;29.48;60.48
64916;BME280;51427;-27.442;153.014;2024-03-02T06:30:52;100963.28;;;29.50;59.87
64916;BME280;51427;-27.442;153.014;2024-03-02T06:33:19;100949.53;;;29.78;59.51
64916;BME280;51427;-27.442;153.014;2024-03-02T06:35:47;100951.75;;;29.58;59.66
64916;BME280;51427;-27.442;153.014;2024-03-02T06:38:15;100954.69;;;29.73;60.29
64916;BME280;51427;-27.442;153.014;2024-03-02T06:40:43;100954.16;;;29.56;60.52
64916;BME280;51427;-27.442;153.014;2024-03-02T06:43:11;100958.78;;;29.42;60.21
64916;BME280;51427;-27.442;153.014;2024-03-02T06:45:39;100959.56;;;29.39;60.76
64916;BME280;51427;-27.442;153.014;2024-03-02T06:48:07;100953.09;;;29.31;60.48
64916;BME280;51427;-27.442;153.014;2024-03-02T06:50:34;100955.91;;;29.31;60.78
64916;BME280;51427;-27.442;153.014;2024-03-02T06:53:02;100961.16;;;29.36;61.14
64916;BME280;51427;-27.442;153.014;2024-03-02T06:55:31;100964.94;;;29.54;61.10
64916;BME280;51427;-27.442;153.014;2024-03-02T06:57:58;100956.00;;;29.42;61.31
64916;BME280;51427;-27.442;153.014;2024-03-02T07:00:26;100953.13;;;29.35;60.42
64916;BME280;51427;-27.442;153.014;2024-03-02T07:02:54;100967.69;;;29.51;60.70
64916;BME280;51427;-27.442;153.014;2024-03-02T07:05:21;100965.50;;;29.74;60.27
64916;BME280;51427;-27.442;153.014;2024-03-02T07:07:49;100968.72;;;29.80;59.38
64916;BME280;51427;-27.442;153.014;2024-03-02T07:10:16;100967.03;;;29.64;59.58
64916;BME280;51427;-27.442;153.014;2024-03-02T07:12:44;100978.56;;;29.59;60.02
64916;BME280;51427;-27.442;153.014;2024-03-02T07:15:12;100966.28;;;29.31;60.34
64916;BME280;51427;-27.442;153.014;2024-03-02T07:17:59;100963.81;;;29.66;60.26
64916;BME280;51427;-27.442;153.014;2024-03-02T07:20:27;100962.53;;;29.20;61.31
64916;BME280;51427;-27.442;153.014;2024-03-02T07:22:55;100973.03;;;29.26;60.66
64916;BME280;51427;-27.442;153.014;2024-03-02T07:25:22;100975.31;;;29.54;60.25
64916;BME280;51427;-27.442;153.014;2024-03-02T07:27:51;100965.41;;;29.27;61.48
64916;BME280;51427;-27.442;153.014;2024-03-02T07:30:19;100964.50;;;29.15;62.28
64916;BME280;51427;-27.442;153.014;2024-03-02T07:32:49;100971.03;;;28.93;62.91
64916;BME280;51427;-27.442;153.014;2024-03-02T07:35:17;100977.47;;;28.97;63.18
64916;BME280;51427;-27.442;153.014;2024-03-02T07:37:45;100972.59;;;28.91;62.99
64916;BME280;51427;-27.442;153.014;2024-03-02T07:40:14;100970.22;;;28.93;63.00
64916;BME280;51427;-27.442;153.014;2024-03-02T07:42:41;100971.38;;;28.92;63.62
64916;BME280;51427;-27.442;153.014;2024-03-02T07:45:08;100974.81;;;28.78;63.86
64916;BME280;51427;-27.442;153.014;2024-03-02T07:47:36;100976.16;;;28.91;64.33
64916;BME280;51427;-27.442;153.014;2024-03-02T07:50:04;100990.06;;;28.84;64.35
64916;BME280;51427;-27.442;153.014;2024-03-02T07:52:33;101000.13;;;28.62;65.02
64916;BME280;51427;-27.442;153.014;2024-03-02T07:55:00;100998.72;;;28.49;65.41
64916;BME280;51427;-27.442;153.014;2024-03-02T07:57:27;101005.13;;;28.76;64.43
64916;BME280;51427;-27.442;153.014;2024-03-02T07:59:55;100999.75;;;28.64;65.23
64916;BME280;51427;-27.442;153.014;2024-03-02T08:02:22;101001.69;;;28.60;65.15
64916;BME280;51427;-27.442;153.014;2024-03-02T08:04:49;101012.38;;;28.28;66.08
64916;BME280;51427;-27.442;153.014;2024-03-02T08:07:17;101013.06;;;28.22;67.02
64916;BME280;51427;-27.442;153.014;2024-03-02T08:09:44;101014.88;;;28.10;66.96
64916;BME280;51427;-27.442;153.014;2024-03-02T08:12:12;101014.56;;;28.15;67.03
64916;BME280;51427;-27.442;153.014;2024-03-02T08:14:39;101010.97;;;28.15;66.79
64916;BME280;51427;-27.442;153.014;2024-03-02T08:17:06;101014.56;;;28.15;67.12
64916;BME280;51427;-27.442;153.014;2024-03-02T08:19:36;101017.91;;;28.02;67.87
64916;BME280;51427;-27.442;153.014;2024-03-02T08:22:04;101025.69;;;28.12;67.27
64916;BME280;51427;-27.442;153.014;2024-03-02T08:24:32;101022.44;;;28.10;67.56
64916;BME280;51427;-27.442;153.014;2024-03-02T08:27:02;101032.22;;;28.00;68.13
64916;BME280;51427;-27.442;153.014;2024-03-02T08:29:30;101033.41;;;27.99;68.23
64916;BME280;51427;-27.442;153.014;2024-03-02T08:31:57;101040.22;;;27.79;68.74
64916;BME280;51427;-27.442;153.014;2024-03-02T08:34:25;101036.53;;;27.94;68.88
64916;BME280;51427;-27.442;153.014;2024-03-02T08:36:52;101047.97;;;27.89;68.67
64916;BME280;51427;-27.442;153.014;2024-03-02T08:39:19;101047.56;;;27.87;68.91
64916;BME280;51427;-27.442;153.014;2024-03-02T08:41:47;101051.66;;;27.93;68.95
64916;BME280;51427;-27.442;153.014;2024-03-02T08:44:15;101053.69;;;27.74;69.61
64916;BME280;51427;-27.442;153.014;2024-03-02T08:46:44;101059.00;;;27.82;69.29
64916;BME280;51427;-27.442;153.014;2024-03-02T08:49:12;101060.03;;;27.93;68.75
64916;BME280;51427;-27.442;153.014;2024-03-02T08:51:39;101063.22;;;27.73;69.64
64916;BME280;51427;-27.442;153.014;2024-03-02T08:54:06;101067.66;;;27.74;69.45
64916;BME280;51427;-27.442;153.014;2024-03-02T08:56:33;101072.97;;;27.82;69.15
64916;BME280;51427;-27.442;153.014;2024-03-02T08:59:01;101086.81;;;27.56;70.15
64916;BME280;51427;-27.442;153.014;2024-03-02T09:01:28;101088.88;;;27.59;70.71
64916;BME280;51427;-27.442;153.014;2024-03-02T09:03:55;101092.69;;;27.70;69.67
64916;BME280;51427;-27.442;153.014;2024-03-02T09:06:23;101098.88;;;27.83;69.32
64916;BME280;51427;-27.442;153.014;2024-03-02T09:08:50;101104.94;;;27.65;70.42
64916;BME280;51427;-27.442;153.014;2024-03-02T09:11:18;101114.94;;;27.66;69.74
64916;BME280;51427;-27.442;153.014;2024-03-02T09:13:45;101118.50;;;27.67;70.31
64916;BME280;51427;-27.442;153.014;2024-03-02T09:16:13;101125.63;;;27.64;69.92
64916;BME280;51427;-27.442;153.014;2024-03-02T09:18:40;101124.19;;;27.51;70.33
64916;BME280;51427;-27.442;153.014;2024-03-02T09:21:07;101142.97;;;27.54;70.74
64916;BME280;51427;-27.442;153.014;2024-03-02T09:23:34;101144.88;;;27.50;70.17
64916;BME280;51427;-27.442;153.014;2024-03-02T09:26:02;101138.19;;;27.55;70.54
64916;BME280;51427;-27.442;153.014;2024-03-02T09:28:29;101147.00;;;27.57;70.74
64916;BME280;51427;-27.442;153.014;2024-03-02T09:30:57;101149.75;;;27.38;71.41
64916;BME280;51427;-27.442;153.014;2024-03-02T09:33:24;101161.25;;;27.36;71.38
64916;BME280;51427;-27.442;153.014;2024-03-02T09:35:51;101149.75;;;27.38;71.17
64916;BME280;51427;-27.442;153.014;2024-03-02T09:38:19;101153.63;;;27.49;71.27
64916;BME280;51427;-27.442;153.014;2024-03-02T09:40:46;101158.53;;;27.55;70.62
64916;BME280;51427;-27.442;153.014;2024-03-02T09:43:14;101168.59;;;27.25;71.60
64916;BME280;51427;-27.442;153.014;2024-03-02T09:45:41;101175.69;;;27.23;72.14
64916;BME280;51427;-27.442;153.014;2024-03-02T09:48:08;101171.38;;;27.25;71.98
64916;BME280;51427;-27.442;153.014;2024-03-02T09:50:36;101182.00;;;27.54;71.28
64916;BME280;51427;-27.442;153.014;2024-03-02T09:53:03;101189.88;;;27.49;71.29
64916;BME280;51427;-27.442;153.014;2024-03-02T09:55:31;101181.97;;;27.70;70.62
64916;BME280;51427;-27.442;153.014;2024-03-02T09:57:58;101185.53;;;27.51;71.31
64916;BME280;51427;-27.442;153.014;2024-03-02T10:00:26;101190.38;;;27.54;71.63
64916;BME280;51427;-27.442;153.014;2024-03-02T10:02:53;101188.25;;;27.67;71.32
64916;BME280;51427;-27.442;153.014;2024-03-02T10:05:27;101191.84;;;27.67;71.16
64916;BME280;51427;-27.442;153.014;2024-03-02T10:08:02;101192.31;;;27.35;71.75
64916;BME280;51427;-27.442;153.014;2024-03-02T10:10:36;101198.41;;;27.56;71.47
64916;BME280;51427;-27.442;153.014;2024-03-02T10:13:08;101190.22;;;27.32;71.27
64916;BME280;51427;-27.442;153.014;2024-03-02T10:15:37;101187.16;;;27.37;71.25
64916;BME280;51427;-27.442;153.014;2024-03-02T10:18:26;101182.41;;;27.37;71.62
64916;BME280;51427;-27.442;153.014;2024-03-02T10:20:55;101177.44;;;27.46;71.24
64916;BME280;51427;-27.442;153.014;2024-03-02T10:23:40;101188.97;;;27.45;71.30
64916;BME280;51427;-27.442;153.014;2024-03-02T10:26:19;101196.78;;;27.39;72.19
64916;BME280;51427;-27.442;153.014;2024-03-02T10:28:47;101201.88;;;27.18;72.59
64916;BME280;51427;-27.442;153.014;2024-03-02T10:31:14;101199.41;;;27.48;71.67
64916;BME280;51427;-27.442;153.014;2024-03-02T10:33:42;101195.06;;;27.15;71.79
64916;BME280;51427;-27.442;153.014;2024-03-02T10:36:10;101204.16;;;27.12;72.36
64916;BME280;51427;-27.442;153.014;2024-03-02T10:38:37;101207.75;;;26.97;73.39
64916;BME280;51427;-27.442;153.014;2024-03-02T10:41:04;101201.16;;;27.21;72.53
64916;BME280;51427;-27.442;153.014;2024-03-02T10:43:32;101200.13;;;27.10;73.16
64916;BME280;51427;-27.442;153.014;2024-03-02T10:45:59;101188.31;;;27.16;73.12
64916;BME280;51427;-27.442;153.014;2024-03-02T10:48:27;101185.78;;;27.27;72.25
64916;BME280;51427;-27.442;153.014;2024-03-02T10:50:55;101192.28;;;27.00;72.41
64916;BME280;51427;-27.442;153.014;2024-03-02T10:53:25;101203.91;;;27.02;72.81
64916;BME280;51427;-27.442;153.014;2024-03-02T10:55:57;101209.56;;;27.05;72.82
64916;BME280;51427;-27.442;153.014;2024-03-02T10:58:32;101236.59;;;27.20;72.42
64916;BME280;51427;-27.442;153.014;2024-03-02T11:01:03;101254.31;;;26.97;72.50
64916;BME280;51427;-27.442;153.014;2024-03-02T11:03:35;101270.34;;;26.84;72.86
64916;BME280;51427;-27.442;153.014;2024-03-02T11:06:08;101283.47;;;26.99;72.54
64916;BME280;51427;-27.442;153.014;2024-03-02T11:08:38;101284.16;;;26.96;72.75
64916;BME280;51427;-27.442;153.014;2024-03-02T11:11:09;101275.00;;;26.96;72.53
64916;BME280;51427;-27.442;153.014;2024-03-02T11:13:44;101280.19;;;26.82;73.14
64916;BME280;51427;-27.442;153.014;2024-03-02T11:19:16;101275.00;;;26.96;72.68
64916;BME280;51427;-27.442;153.014;2024-03-02T11:21:45;101266.19;;;26.78;73.03
64916;BME280;51427;-27.442;153.014;2024-03-02T11:26:54;101257.72;;;26.75;73.91
64916;BME280;51427;-27.442;153.014;2024-03-02T11:32:06;101278.56;;;26.81;73.10
64916;BME280;51427;-27.442;153.014;2024-03-02T11:34:42;101267.69;;;26.76;73.83
64916;BME280;51427;-27.442;153.014;2024-03-02T11:37:13;101271.38;;;26.80;73.82
64916;BME280;51427;-27.442;153.014;2024-03-02T11:39:42;101284.09;;;26.65;74.13
64916;BME280;51427;-27.442;153.014;2024-03-02T11:42:11;101290.25;;;26.70;74.20
64916;BME280;51427;-27.442;153.014;2024-03-02T11:44:43;101291.34;;;26.82;73.66
64916;BME280;51427;-27.442;153.014;2024-03-02T11:47:15;101290.88;;;26.80;73.61
64916;BME280;51427;-27.442;153.014;2024-03-02T11:49:46;101296.91;;;26.82;73.72
64916;BME280;51427;-27.442;153.014;2024-03-02T11:52:16;101281.16;;;26.73;74.51
64916;BME280;51427;-27.442;153.014;2024-03-02T11:54:46;101286.84;;;26.77;74.20
64916;BME280;51427;-27.442;153.014;2024-03-02T11:57:16;101293.94;;;26.75;74.53
64916;BME280;51427;-27.442;153.014;2024-03-02T11:59:44;101299.13;;;26.76;74.61
64916;BME280;51427;-27.442;153.014;2024-03-02T12:02:19;101291.81;;;26.84;74.32
64916;BME280;51427;-27.442;153.014;2024-03-02T12:04:48;101290.19;;;26.83;74.07
64916;BME280;51427;-27.442;153.014;2024-03-02T12:07:22;101304.63;;;26.72;75.17
64916;BME280;51427;-27.442;153.014;2024-03-02T12:10:10;101307.50;;;26.76;74.85
64916;BME280;51427;-27.442;153.014;2024-03-02T12:12:37;101309.13;;;26.77;74.69
64916;BME280;51427;-27.442;153.014;2024-03-02T12:15:05;101313.97;;;26.80;74.38
64916;BME280;51427;-27.442;153.014;2024-03-02T12:17:32;101316.88;;;26.84;74.51
64916;BME280;51427;-27.442;153.014;2024-03-02T12:20:05;101308.28;;;26.89;73.85
64916;BME280;51427;-27.442;153.014;2024-03-02T12:22:33;101308.97;;;26.86;74.49
64916;BME280;51427;-27.442;153.014;2024-03-02T12:25:00;101314.78;;;26.81;74.45
64916;BME280;51427;-27.442;153.014;2024-03-02T12:27:29;101320.47;;;26.84;74.27
64916;BME280;51427;-27.442;153.014;2024-03-02T12:29:57;101321.28;;;26.85;74.69
64916;BME280;51427;-27.442;153.014;2024-03-02T12:32:24;101326.41;;;26.83;74.87
64916;BME280;51427;-27.442;153.014;2024-03-02T12:34:51;101324.91;;;26.85;74.53
64916;BME280;51427;-27.442;153.014;2024-03-02T12:37:19;101332.53;;;26.88;74.68